Thunder radar more information blitzortung!


Radar de pluja more information rain snow radar


Visita la nostra xarxa de llocs de meteo:

Template documentation
and downloads

And another site



No particular awareness of the weather is required.    There are no Weather-warnings

Pagina Historial Weather Underground text

Diari Resum January 10, 2018 Unitats:  Imperial    Mètric   Tant
« Previous Dia
SegĂźent Dia »
Diari Setmana Mensual Anual Personalitzada
  Maxima: Minima: Media:
Temperatura: TemperatureC °F 4.8 °F 9.3 °F
Punt de rosada: DewpointC °F -2.8 °F 1.1 °F
Humitat: Humidity % 50 % 56 %
Wind Speed: WindSpeedKMH mph 0.0 mph 6.3 mph
RĂ fegues de vent: WindSpeedGustKMH mph - -
Vent:- - WSW
Pression baro: PressurehPa in 1010.7 in -
Precipitacions: 0.0 in    
Historical Graphs
 
 
Dades de taula per January 10, 2018
Temps Temperatura Punt de rosada Pression baro Vent Wind Speed RĂ fegues de vent Humitat Rainfall Rate (Hourly)
TemperatureC °F DewpointC °F PressurehPa in Calm     Humidity % HourlyPrecipMM in
00:25 4.8 °F -2.8 °F 1013.8 in NNW 1.6 mph 3.2 mph 58 % 0.0 in
10:36 5.9 °F -1.1 °F 1015.8 in WNW 7.6 mph 7.6 mph 61 % 0.0 in
10:54 6.6 °F -0.4 °F 1015.8 in NNE 11.1 mph 11.1 mph 61 % 0.0 in
11:16 6.9 °F -0.3 °F 1015.8 in ENE 9.3 mph 9.3 mph 60 % 0.0 in
11:23 7.2 °F -0.1 °F 1015.8 in NNE 4.7 mph 4.7 mph 60 % 0.0 in
12:22 8.8 °F 0.7 °F 1014.8 in ENE 7.4 mph 7.4 mph 57 % 0.0 in
12:23 8.9 °F 0.8 °F 1014.8 in NNE 3.9 mph 3.9 mph 57 % 0.0 in
12:40 9.3 °F 1.2 °F 1013.8 in NNE 1.9 mph 1.9 mph 57 % 0.0 in
12:43 9.4 °F 1.3 °F 1013.8 in East 3.7 mph   57 % 0.0 in
13:37 10.9 °F 2.2 °F 1013.8 in East 5.6 mph 5.6 mph 55 % 0.0 in
13:45 11.7 °F 3.2 °F 1013.8 in West 9.3 mph 9.3 mph 56 % 0.0 in
13:54 12.2 °F 3.4 °F 1013.8 in West 9.3 mph 9.3 mph 55 % 0.0 in
13:55 12.2 °F 3.4 °F 1013.8 in WNW 9.7 mph 9.7 mph 55 % 0.0 in
14:00 12.0 °F 2.9 °F 1013.8 in West 14.8 mph 14.8 mph 54 % 0.0 in
14:15 11.8 °F 2.3 °F 1013.8 in West 10.3 mph 10.3 mph 52 % 0.0 in
14:26 11.8 °F 2.3 °F 1013.8 in SSW 13.7 mph 13.7 mph 52 % 0.0 in
14:29 11.7 °F 2.2 °F 1013.8 in WSW 13.7 mph 13.7 mph 52 % 0.0 in
14:46 12.1 °F 2.6 °F 1012.8 in WNW 9.3 mph 9.3 mph 52 % 0.0 in
14:48 12.1 °F 2.6 °F 1012.8 in WNW 5.6 mph 5.6 mph 52 % 0.0 in
15:18 12.7 °F 3.1 °F 1011.7 in WSW 9.3 mph 9.3 mph 52 % 0.0 in
15:19 12.7 °F 3.1 °F 1011.7 in WNW 7.4 mph 7.4 mph 52 % 0.0 in
15:20 12.7 °F 3.1 °F 1012.8 in WSW 7.4 mph 7.4 mph 52 % 0.0 in
15:21 12.7 °F 3.1 °F 1012.8 in SSW 7.9 mph 7.9 mph 52 % 0.0 in
15:23 12.7 °F 3.1 °F 1012.8 in WNW 9.3 mph 9.3 mph 52 % 0.0 in
15:24 12.7 °F 3.1 °F 1012.8 in SW 9.3 mph 9.3 mph 52 % 0.0 in
15:25 12.7 °F 3.1 °F 1012.8 in WSW 5.6 mph 5.6 mph 52 % 0.0 in
15:26 12.7 °F 3.1 °F 1012.8 in WSW 5.6 mph 5.8 mph 52 % 0.0 in
15:27 12.7 °F 2.8 °F 1012.8 in SW 7.4 mph 7.4 mph 51 % 0.0 in
15:29 12.7 °F 2.8 °F 1012.8 in WSW 11.1 mph 11.1 mph 51 % 0.0 in
15:38 12.7 °F 2.8 °F 1012.8 in WSW 11.1 mph 11.1 mph 51 % 0.0 in
15:44 12.6 °F 2.7 °F 1012.8 in SW 13.0 mph 13.0 mph 51 % 0.0 in
15:49 12.5 °F 2.6 °F 1012.8 in WNW 11.1 mph 11.1 mph 51 % 0.0 in
15:56 12.4 °F 2.6 °F 1012.8 in WNW 9.3 mph 9.3 mph 51 % 0.0 in
16:01 12.4 °F 2.6 °F 1012.8 in WSW 4.7 mph 4.7 mph 51 % 0.0 in
16:07 12.5 °F 2.6 °F 1012.8 in West 6.1 mph 6.1 mph 51 % 0.0 in
16:16 12.4 °F 2.6 °F 1012.8 in WNW 9.3 mph 9.3 mph 51 % 0.0 in
16:21 12.2 °F 2.3 °F 1013.8 in West 13.0 mph 13.0 mph 51 % 0.0 in
16:30 12.0 °F 2.2 °F 1013.8 in SW 10.3 mph 10.3 mph 51 % 0.0 in
16:35 11.7 °F 1.6 °F 1012.8 in WSW 19.0 mph 19.0 mph 50 % 0.0 in
16:45 11.5 °F 1.4 °F 1012.8 in WSW 14.8 mph 14.8 mph 50 % 0.0 in
16:52 11.4 °F 1.3 °F 1013.8 in NW 13.0 mph 13.0 mph 50 % 0.0 in
16:57 11.2 °F 1.2 °F 1013.8 in WSW 18.5 mph 18.5 mph 50 % 0.0 in
17:12 10.6 °F 0.9 °F 1013.8 in WSW 16.7 mph 16.7 mph 51 % 0.0 in
17:17 10.4 °F 0.7 °F 1013.8 in WNW 14.8 mph 14.8 mph 51 % 0.0 in
17:24 10.2 °F 0.5 °F 1012.8 in WSW 16.7 mph 16.7 mph 51 % 0.0 in
17:29 10.0 °F 0.3 °F 1012.8 in West 9.3 mph 9.3 mph 51 % 0.0 in
17:35 9.8 °F 0.1 °F 1012.8 in WSW 10.0 mph 10.0 mph 51 % 0.0 in
17:40 9.7 °F 0.3 °F 1012.8 in SW 9.3 mph 9.3 mph 52 % 0.0 in
17:46 9.6 °F 0.2 °F 1012.8 in WSW 5.6 mph 5.6 mph 52 % 0.0 in
17:51 9.5 °F 0.1 °F 1012.8 in WNW 9.3 mph 9.3 mph 52 % 0.0 in
17:57 9.4 °F 0.0 °F 1012.8 in SW 7.4 mph 7.4 mph 52 % 0.0 in
18:03 9.2 °F -0.2 °F 1012.8 in SSE 1.9 mph 1.9 mph 52 % 0.0 in
18:09 9.1 °F 0.0 °F 1012.8 in WSW 1.9 mph   53 % 0.0 in
18:20 8.9 °F -0.2 °F 1012.8 in WSW 3.9 mph 3.9 mph 53 % 0.0 in
18:25 8.9 °F 1.8 °F 1010.7 in WSW 3.2 mph 4.8 mph 61 % 0.0 in
18:26 8.8 °F -0.3 °F 1012.8 in WNW 3.7 mph 3.9 mph 53 % 0.0 in
18:34 8.7 °F -0.3 °F 1012.8 in WNW 7.4 mph 7.4 mph 53 % 0.0 in
18:35 8.7 °F 1.6 °F 1010.7 in Calm   3.2 mph 61 % 0.0 in
18:42 8.7 °F -0.1 °F 1012.8 in West 7.4 mph 7.4 mph 54 % 0.0 in
18:45 8.7 °F 1.6 °F 1010.7 in Calm   1.6 mph 61 % 0.0 in
18:48 8.7 °F -0.1 °F 1012.8 in SSW 3.7 mph 3.7 mph 54 % 0.0 in
18:55 8.5 °F 1.4 °F 1011.7 in West 1.6 mph   61 % 0.0 in
18:57 8.8 °F 0.0 °F 1011.7 in SW 9.3 mph 9.3 mph 54 % 0.0 in
19:02 8.7 °F -0.1 °F 1011.7 in WSW 7.4 mph 7.4 mph 54 % 0.0 in
19:05 8.5 °F 1.4 °F 1011.7 in West 1.6 mph 4.8 mph 61 % 0.0 in
19:10 8.5 °F -0.1 °F 1012.8 in SSW 5.6 mph 5.6 mph 55 % 0.0 in
19:15 8.5 °F 1.4 °F 1011.7 in WSW 3.2 mph 4.8 mph 61 % 0.0 in
19:18 8.5 °F -0.1 °F 1012.8 in SSW 7.4 mph 7.4 mph 55 % 0.0 in
19:25 8.3 °F 1.2 °F 1011.7 in WSW 3.2 mph 6.4 mph 61 % 0.0 in
19:28 8.3 °F -0.2 °F 1012.8 in SSW 5.6 mph 5.6 mph 55 % 0.0 in
19:34 8.3 °F -0.2 °F 1012.8 in SW 3.7 mph 3.7 mph 55 % 0.0 in
19:35 8.3 °F 1.4 °F 1011.7 in WSW 3.2 mph 4.8 mph 62 % 0.0 in
19:40 8.2 °F -0.1 °F 1012.8 in WNW 3.7 mph 3.7 mph 56 % 0.0 in
19:46 8.2 °F -0.1 °F 1012.8 in NNE 1.9 mph   56 % 0.0 in
19:52 8.1 °F -0.2 °F 1012.8 in Calm     56 % 0.0 in
19:55 8.1 °F 1.2 °F 1011.7 in WSW 3.2 mph 4.8 mph 62 % 0.0 in
19:58 8.1 °F -0.2 °F 1012.8 in SW 3.7 mph 3.7 mph 56 % 0.0 in
20:05 8.1 °F -0.2 °F 1012.8 in SW 5.6 mph 5.6 mph 56 % 0.0 in
20:11 8.2 °F 0.2 °F 1012.8 in WSW 5.6 mph 5.6 mph 57 % 0.0 in
20:15 8.1 °F 1.2 °F 1011.7 in West 3.2 mph 8.0 mph 62 % 0.0 in
20:17 8.4 °F 0.4 °F 1012.8 in West 5.6 mph 5.6 mph 57 % 0.0 in
20:26 8.5 °F 0.4 °F 1011.7 in West 5.6 mph 5.6 mph 57 % 0.0 in
20:35 7.9 °F 1.1 °F 1011.7 in West 4.8 mph 6.4 mph 62 % 0.0 in
20:45 7.8 °F 1.2 °F 1011.7 in West 1.6 mph 3.2 mph 63 % 0.0 in
20:48 8.4 °F 0.6 °F 1011.7 in WSW 7.4 mph 7.4 mph 58 % 0.0 in
20:55 7.7 °F 1.1 °F 1011.7 in West 3.2 mph 4.8 mph 63 % 0.0 in
21:03 8.5 °F 0.7 °F 1011.7 in West 5.6 mph 5.6 mph 58 % 0.0 in
21:05 7.5 °F 0.9 °F 1010.7 in West 1.6 mph 3.2 mph 63 % 0.0 in
21:13 8.5 °F 0.9 °F 1011.7 in West 5.8 mph 5.8 mph 59 % 0.0 in
21:15 7.5 °F 0.9 °F 1010.7 in NW 3.2 mph 3.2 mph 63 % 0.0 in
21:19 8.5 °F 0.9 °F 1011.7 in WSW 5.6 mph 5.6 mph 59 % 0.0 in
21:25 7.6 °F 1.0 °F 1011.7 in NNW 1.6 mph 4.8 mph 63 % 0.0 in
21:35 7.8 °F 1.2 °F 1011.7 in NW 1.6 mph 4.8 mph 63 % 0.0 in
21:43 8.8 °F 1.2 °F 1011.7 in West 5.6 mph 5.6 mph 59 % 0.0 in
21:45 7.7 °F 1.1 °F 1011.7 in NNW 1.6 mph 3.2 mph 63 % 0.0 in
21:52 8.7 °F 1.1 °F 1011.7 in West 3.7 mph 3.7 mph 59 % 0.0 in
21:55 7.7 °F 1.3 °F 1011.7 in North 1.6 mph 4.8 mph 64 % 0.0 in
22:04 8.7 °F 1.3 °F 1011.7 in WSW 3.7 mph 3.7 mph 60 % 0.0 in
22:05 7.7 °F 1.3 °F 1011.7 in Calm   4.8 mph 64 % 0.0 in
22:09 8.7 °F 1.3 °F 1011.7 in WNW 3.7 mph 3.7 mph 60 % 0.0 in
22:15 7.6 °F 1.2 °F 1011.7 in Calm   1.6 mph 64 % 0.0 in
22:25 7.6 °F 1.2 °F 1011.7 in WNW 4.8 mph 16.1 mph 64 % 0.0 in
22:35 7.6 °F 0.8 °F 1011.7 in West 3.2 mph 8.0 mph 62 % 0.0 in
22:39 8.6 °F 1.3 °F 1011.7 in West 9.3 mph 9.3 mph 60 % 0.0 in
22:45 7.5 °F 0.4 °F 1011.7 in West 3.2 mph 4.8 mph 61 % 0.0 in
22:47 8.6 °F 1.3 °F 1011.7 in West 5.6 mph 5.6 mph 60 % 0.0 in
22:53 8.6 °F 1.3 °F 1011.7 in WSW 3.9 mph 3.9 mph 60 % 0.0 in
22:55 7.4 °F 0.4 °F 1011.7 in West 3.2 mph 6.4 mph 61 % 0.0 in
23:00 8.6 °F 1.3 °F 1011.7 in WSW 4.2 mph 4.2 mph 60 % 0.0 in
23:02 8.6 °F 1.3 °F 1011.7 in West 7.4 mph 7.4 mph 60 % 0.0 in
23:07 8.6 °F 1.3 °F 1011.7 in West 5.6 mph 5.6 mph 60 % 0.0 in
23:14 8.6 °F 1.3 °F 1011.7 in West 2.3 mph 2.3 mph 60 % 0.0 in
23:15 7.1 °F -0.2 °F 1011.7 in WSW 8.0 mph 11.3 mph 60 % 0.0 in
23:25 7.0 °F -0.5 °F 1010.7 in West 4.8 mph 6.4 mph 59 % 0.0 in
23:29 8.5 °F 1.4 °F 1011.7 in SW 1.9 mph   61 % 0.0 in
23:35 8.5 °F 1.4 °F 1011.7 in WSW 3.7 mph 3.7 mph 61 % 0.0 in
23:45 6.7 °F -0.8 °F 1011.7 in West 4.8 mph 8.0 mph 59 % 0.0 in
23:50 8.7 °F 1.6 °F 1011.7 in West 3.7 mph 3.7 mph 61 % 0.0 in
23:55 6.6 °F -0.8 °F 1011.7 in West 3.2 mph 6.4 mph 59 % 0.0 in
23:59 8.9 °F 1.8 °F 1011.7 in West 5.8 mph 5.8 mph 61 % 0.0 in
Meteo Sesrovires
Elogis d' Weather Underground - 2 mb

Guio original per  Jim McMurry - jmcmurry@mwt.net Adaptat per a la plantilla per  Wim van der Kuil - Leuven-Template.eu

Trobareu la nostra informacio del temps tambe a:

Weather Underground

AWEKAS